Time;durP1;ratioP1;P1;durP2;ratioP2;P2;SDS_P1;SDS_P2;PMS_P1;PMS_P2;Temp;Humidity;BMP_temperature;BMP_pressure;BME280_temperature;BME280_humidity;BME280_pressure;Samples;Min_cycle;Max_cycle;Signal;HPM_P1;HPM_P2
2023/06/27 00:01:25;;;;;;;0.00;0.00;;;;;;;20.43;59.77;102088.94;5091206;28;20024;-86
2023/06/27 00:03:51;;;;;;;0.95;0.93;;;;;;;20.40;60.16;102094.44;5090453;28;20388;-85
2023/06/27 00:06:20;;;;;;;0.05;0.05;;;;;;;20.36;59.63;102093.69;5086094;28;20024;-85
2023/06/27 00:08:47;;;;;;;0.10;0.10;;;;;;;20.32;59.20;102090.25;5091322;28;20446;-84
2023/06/27 00:11:17;;;;;;;0.10;0.10;;;;;;;20.33;58.63;102094.69;5085996;28;20051;-84
2023/06/27 00:13:43;;;;;;;0.00;0.00;;;;;;;20.29;58.85;102090.38;5085720;28;20027;-83
2023/06/27 00:16:12;;;;;;;0.10;0.10;;;;;;;20.27;60.28;102092.25;5082639;28;20078;-84
2023/06/27 00:18:39;;;;;;;0.63;0.63;;;;;;;20.24;59.08;102087.00;5082503;28;20024;-84
2023/06/27 00:21:06;;;;;;;0.08;0.08;;;;;;;20.21;59.28;102092.50;5089774;28;20045;-84
2023/06/27 00:23:33;;;;;;;0.10;0.10;;;;;;;20.19;59.42;102086.31;5092087;28;20382;-84
2023/06/27 00:26:01;;;;;;;0.10;0.10;;;;;;;20.18;58.87;102096.19;5097691;28;20540;-84
2023/06/27 00:28:27;;;;;;;0.10;0.10;;;;;;;20.16;60.41;102089.13;5096443;28;20039;-84
2023/06/27 00:30:53;;;;;;;0.10;0.10;;;;;;;20.15;59.62;102087.38;5088056;28;20492;-83
2023/06/27 00:33:20;;;;;;;0.20;0.20;;;;;;;20.16;59.54;102083.75;5088642;28;20052;-84
2023/06/27 00:35:46;;;;;;;0.00;0.00;;;;;;;20.17;59.94;102085.50;5084957;28;20024;-84
2023/06/27 00:38:12;;;;;;;0.05;0.05;;;;;;;20.18;59.64;102079.19;5084240;28;20059;-84
2023/06/27 00:40:38;;;;;;;0.10;0.10;;;;;;;20.16;59.21;102090.00;5091369;28;20059;-84
2023/06/27 00:43:04;;;;;;;0.10;0.10;;;;;;;20.16;60.27;102090.00;5092674;28;20025;-83
2023/06/27 00:45:30;;;;;;;0.00;0.00;;;;;;;20.15;60.69;102095.44;5087327;28;20047;-83
2023/06/27 00:47:56;;;;;;;0.20;0.20;;;;;;;20.12;59.97;102088.38;5086537;28;20115;-83
2023/06/27 00:50:26;;;;;;;0.00;0.00;;;;;;;20.13;59.74;102090.13;5096917;28;20020;-83
2023/06/27 00:52:53;;;;;;;0.10;0.10;;;;;;;20.13;60.66;102087.44;5082996;28;20051;-83
2023/06/27 00:55:21;;;;;;;0.45;0.45;;;;;;;20.13;60.43;102083.88;5080380;28;20089;-83
2023/06/27 00:57:48;;;;;;;0.00;0.00;;;;;;;20.11;60.87;102085.75;5084676;28;20103;-83
2023/06/27 01:00:16;;;;;;;0.10;0.10;;;;;;;20.11;60.50;102085.75;5090251;28;20517;-84
2023/06/27 01:02:45;;;;;;;0.00;0.00;;;;;;;20.10;61.21;102087.56;5091104;28;20024;-84
2023/06/27 01:05:13;;;;;;;0.10;0.10;;;;;;;20.11;59.96;102088.44;5088981;28;20020;-85
2023/06/27 01:07:52;;;;;;;0.10;0.10;;;;;;;20.12;59.59;102088.38;5085572;28;20028;-84
2023/06/27 01:10:34;;;;;;;0.38;0.38;;;;;;;20.14;59.50;102091.03;5081122;28;20024;-84
2023/06/27 01:13:08;;;;;;;0.00;0.00;;;;;;;20.11;58.93;102092.03;5086545;28;20024;-84
2023/06/27 01:15:35;;;;;;;0.00;0.00;;;;;;;20.07;59.29;102093.06;5078437;28;20175;-85
2023/06/27 01:18:11;;;;;;;0.00;0.00;;;;;;;20.08;59.20;102094.81;5086324;28;20031;-85
2023/06/27 01:20:39;;;;;;;0.10;0.10;;;;;;;20.04;59.69;102096.75;5099917;28;20032;-85
2023/06/27 01:23:22;;;;;;;0.10;0.10;;;;;;;20.09;58.58;102087.59;5107484;28;20020;-85
2023/06/27 01:25:50;;;;;;;0.10;0.10;;;;;;;20.06;59.60;102090.44;5084809;28;20078;-85
2023/06/27 01:28:17;;;;;;;0.10;0.10;;;;;;;20.07;58.68;102084.13;5103814;28;20030;-85
2023/06/27 01:30:43;;;;;;;0.00;0.00;;;;;;;20.08;59.34;102088.56;5088757;28;20074;-86
2023/06/27 01:33:18;;;;;;;0.10;0.10;;;;;;;20.13;59.05;102091.94;5081308;28;20703;-87
2023/06/27 01:35:56;;;;;;;0.00;0.00;;;;;;;20.13;59.01;102089.25;5082508;28;20436;-86
2023/06/27 01:38:46;;;;;;;0.10;0.10;;;;;;;20.13;58.48;102082.06;5101943;28;20444;-86
2023/06/27 01:41:17;;;;;;;0.00;0.00;;;;;;;20.15;58.46;102081.97;5080340;28;20487;-86
2023/06/27 01:43:44;;;;;;;0.07;0.07;;;;;;;20.17;58.81;102080.13;5086529;28;20499;-86
2023/06/27 01:46:11;;;;;;;0.00;0.00;;;;;;;20.18;58.91;102082.72;5089435;28;20021;-86
2023/06/27 01:48:40;;;;;;;1.65;1.17;;;;;;;20.19;59.07;102079.09;5086207;28;20027;-86
2023/06/27 01:51:08;;;;;;;0.08;0.08;;;;;;;20.21;58.75;102081.72;5086431;28;20031;-86
2023/06/27 01:53:37;;;;;;;0.00;0.00;;;;;;;20.20;58.88;102080.00;5085539;28;20023;-89
2023/06/27 01:56:08;;;;;;;0.00;0.00;;;;;;;20.19;59.00;102083.63;5101789;28;20087;-89
2023/06/27 01:58:40;;;;;;;0.10;0.10;;;;;;;20.18;59.09;102079.19;5099735;28;20027;-90
2023/06/27 02:01:24;;;;;;;0.10;0.10;;;;;;;20.23;58.88;102084.38;5115951;28;20046;-89
2023/06/27 02:07:34;;;;;;;0.35;0.35;;;;;;;20.11;58.71;102081.25;4991618;28;20026;-86
2023/06/27 02:10:00;;;;;;;0.00;0.00;;;;;;;20.09;58.87;102075.06;5068055;28;20048;-86
2023/06/27 02:12:26;;;;;;;0.15;0.15;;;;;;;20.06;58.85;102083.22;5094801;28;20051;-85
2023/06/27 02:14:52;;;;;;;0.10;0.10;;;;;;;20.05;58.81;102076.13;5091405;28;20094;-85
2023/06/27 02:17:18;;;;;;;0.10;0.10;;;;;;;20.03;59.40;102078.00;5091099;28;20413;-86
2023/06/27 02:19:44;;;;;;;0.32;0.25;;;;;;;20.02;59.36;102066.34;5099131;28;20035;-86
2023/06/27 02:22:10;;;;;;;0.10;0.10;;;;;;;20.03;59.43;102067.22;5089115;28;20032;-86
2023/06/27 02:24:37;;;;;;;0.20;0.20;;;;;;;20.02;59.43;102066.34;5095985;28;20027;-85
2023/06/27 02:27:03;;;;;;;0.10;0.10;;;;;;;20.03;59.18;102059.16;5088222;28;20107;-85
2023/06/27 02:29:30;;;;;;;0.10;0.10;;;;;;;20.04;59.47;102058.22;5093411;28;20050;-85
2023/06/27 02:31:56;;;;;;;0.30;0.30;;;;;;;20.08;58.95;102061.66;5108771;28;20020;-85
2023/06/27 02:34:22;;;;;;;0.00;0.00;;;;;;;20.11;59.13;102048.06;5098972;28;20489;-84
2023/06/27 02:36:48;;;;;;;0.10;0.10;;;;;;;20.13;59.36;102043.53;5100556;28;20043;-85
2023/06/27 02:39:14;;;;;;;0.00;0.00;;;;;;;20.14;59.68;102047.97;5098789;28;20025;-85
2023/06/27 02:41:41;;;;;;;0.10;0.10;;;;;;;20.14;60.12;102056.03;5111169;28;20024;-85
2023/06/27 02:44:07;;;;;;;0.28;0.28;;;;;;;20.16;60.03;102059.53;5099331;28;20622;-85
2023/06/27 02:46:33;;;;;;;0.10;0.10;;;;;;;20.13;60.11;102068.59;5097373;28;20042;-85
2023/06/27 02:48:59;;;;;;;0.10;0.10;;;;;;;20.09;60.09;102063.41;5088778;28;20016;-85
2023/06/27 02:51:25;;;;;;;0.10;0.10;;;;;;;20.07;60.35;102059.91;5088843;28;20054;-85
2023/06/27 02:53:51;;;;;;;0.10;0.10;;;;;;;20.02;60.07;102055.56;5076944;28;20108;-84
2023/06/27 02:56:18;;;;;;;0.10;0.10;;;;;;;19.99;60.16;102061.09;5091592;28;20028;-84
2023/06/27 02:58:44;;;;;;;0.10;0.10;;;;;;;19.93;61.16;102058.66;5099160;28;20054;-85
2023/06/27 03:01:10;;;;;;;0.10;0.10;;;;;;;19.87;60.52;102070.50;5097933;28;20023;-85
2023/06/27 03:03:36;;;;;;;0.03;0.03;;;;;;;19.79;61.06;102063.66;5088119;28;20118;-86
2023/06/27 03:06:03;;;;;;;0.10;0.10;;;;;;;19.71;61.58;102069.34;5086292;28;20416;-86
2023/06/27 03:08:30;;;;;;;0.10;0.10;;;;;;;19.69;61.21;102076.59;5089146;28;20536;-85
2023/06/27 03:10:57;;;;;;;0.30;0.30;;;;;;;19.64;61.61;102071.41;5082116;28;20026;-85
2023/06/27 03:13:23;;;;;;;0.10;0.10;;;;;;;19.61;62.01;102071.50;5095188;28;20028;-85
2023/06/27 03:15:49;;;;;;;0.20;0.20;;;;;;;19.63;61.69;102085.78;5085642;28;20035;-86
2023/06/27 03:18:15;;;;;;;0.00;0.00;;;;;;;19.63;61.45;102080.41;5084325;28;20079;-86
2023/06/27 03:20:41;;;;;;;0.00;0.00;;;;;;;19.61;62.55;102084.94;5085341;28;20028;-86
2023/06/27 03:23:08;;;;;;;0.10;0.10;;;;;;;19.62;61.88;102078.63;5087115;28;20028;-86
2023/06/27 03:25:34;;;;;;;0.10;0.10;;;;;;;19.64;61.92;102082.16;5086192;28;20016;-85
2023/06/27 03:28:02;;;;;;;0.03;0.03;;;;;;;19.63;61.80;102080.41;5091190;28;20378;-86
2023/06/27 03:30:28;;;;;;;0.10;0.10;;;;;;;19.63;61.69;102080.41;5090942;28;20082;-86
2023/06/27 03:32:54;;;;;;;0.10;0.10;;;;;;;19.65;62.07;102069.56;5079543;28;20115;-86
2023/06/27 03:35:20;;;;;;;0.40;0.40;;;;;;;19.65;61.99;102089.28;5098000;28;20059;-85
2023/06/27 03:37:46;;;;;;;0.05;0.05;;;;;;;19.66;61.47;102085.63;5090733;28;20091;-86
2023/06/27 03:40:13;;;;;;;0.10;0.10;;;;;;;19.64;62.22;102079.47;5087532;28;20023;-84
2023/06/27 03:42:39;;;;;;;0.10;0.10;;;;;;;19.66;61.91;102095.53;5093681;28;20028;-85
2023/06/27 03:45:05;;;;;;;0.25;0.15;;;;;;;19.64;61.74;102079.47;5097584;28;20138;-85
2023/06/27 03:47:32;;;;;;;0.10;0.10;;;;;;;19.64;61.83;102079.47;5092687;28;20035;-85
2023/06/27 03:49:58;;;;;;;0.00;0.00;;;;;;;19.63;61.43;102077.72;5093163;28;20017;-85
2023/06/27 03:52:24;;;;;;;0.40;0.40;;;;;;;19.60;62.13;102080.53;5096939;28;20164;-85
2023/06/27 03:54:50;;;;;;;0.10;0.10;;;;;;;19.60;61.92;102085.00;5099669;28;20039;-85
2023/06/27 03:57:16;;;;;;;0.65;0.65;;;;;;;19.57;62.13;102083.31;5097571;28;20103;-85
2023/06/27 03:59:42;;;;;;;0.65;0.20;;;;;;;19.57;62.00;102086.00;5105884;28;20031;-85
2023/06/27 04:02:08;;;;;;;0.10;0.10;;;;;;;19.58;62.12;102084.19;5109828;28;20115;-85
2023/06/27 04:04:34;;;;;;;0.10;0.10;;;;;;;19.55;62.86;102088.75;5107364;28;20044;-86
2023/06/27 04:07:00;;;;;;;0.10;0.10;;;;;;;19.56;62.51;102087.84;5085200;28;20031;-85
2023/06/27 04:09:26;;;;;;;0.10;0.10;;;;;;;19.57;62.39;102091.38;5093126;28;20027;-85
2023/06/27 04:11:53;;;;;;;0.30;0.30;;;;;;;19.55;62.09;102086.06;5103197;28;20050;-85
2023/06/27 04:14:19;;;;;;;0.10;0.10;;;;;;;19.53;62.27;102085.25;5100554;28;20032;-85
2023/06/27 04:16:45;;;;;;;0.10;0.10;;;;;;;19.52;61.81;102104.13;5084430;28;20123;-84
2023/06/27 04:19:11;;;;;;;0.10;0.10;;;;;;;19.46;62.27;102093.59;5106576;28;20031;-85
2023/06/27 04:21:37;;;;;;;0.00;0.00;;;;;;;19.43;61.66;102104.47;5093103;28;20116;-85
2023/06/27 04:24:04;;;;;;;0.05;0.05;;;;;;;19.37;62.45;102101.06;5095310;28;20035;-85
2023/06/27 04:26:31;;;;;;;0.10;0.10;;;;;;;19.33;62.60;102104.81;5105887;28;20028;-85
2023/06/27 04:28:57;;;;;;;0.10;0.10;;;;;;;19.30;62.65;102099.56;5098322;28;20050;-85
2023/06/27 04:31:24;;;;;;;0.10;0.10;;;;;;;19.26;63.19;102097.91;5096460;28;20044;-85
2023/06/27 04:33:55;;;;;;;0.10;0.10;;;;;;;19.25;62.99;102101.50;5085737;28;20031;-85
2023/06/27 04:36:24;;;;;;;0.10;0.10;;;;;;;19.22;62.98;102105.19;5089228;28;20054;-85
2023/06/27 04:38:50;;;;;;;0.10;0.10;;;;;;;19.21;63.00;102105.25;5098769;28;20028;-85
2023/06/27 04:41:17;;;;;;;0.10;0.10;;;;;;;19.21;63.28;102105.25;5104660;28;20021;-84
2023/06/27 04:43:43;;;;;;;0.10;0.10;;;;;;;19.18;63.74;102108.06;5097369;28;20581;-85
2023/06/27 04:46:09;;;;;;;0.22;0.22;;;;;;;19.18;63.60;102108.06;5097719;28;20062;-86
2023/06/27 04:48:35;;;;;;;0.03;0.03;;;;;;;19.14;63.61;102115.38;5091129;28;20045;-83
2023/06/27 04:51:01;;;;;;;0.05;0.05;;;;;;;19.15;63.70;102113.53;5092858;28;20024;-84
2023/06/27 04:53:27;;;;;;;0.10;0.10;;;;;;;19.13;63.54;102107.34;5098230;28;20032;-82
2023/06/27 04:55:54;;;;;;;0.10;0.10;;;;;;;19.11;64.02;102106.53;5101627;28;20127;-84
2023/06/27 04:58:20;;;;;;;0.30;0.30;;;;;;;19.13;63.61;102110.00;5106649;28;20020;-83
2023/06/27 05:00:47;;;;;;;0.10;0.10;;;;;;;19.13;63.62;102112.69;5092434;28;20032;-84
2023/06/27 05:03:14;;;;;;;0.28;0.28;;;;;;;19.13;63.40;102118.06;5089645;28;20032;-83
2023/06/27 05:05:40;;;;;;;0.25;0.25;;;;;;;19.15;62.75;102110.84;5089741;28;20024;-85
2023/06/27 05:08:07;;;;;;;0.10;0.10;;;;;;;19.19;63.05;102117.84;5090684;28;20134;-84
2023/06/27 05:10:33;;;;;;;0.10;0.10;;;;;;;19.21;63.28;102113.31;5093877;28;20056;-84
2023/06/27 05:13:00;;;;;;;0.10;0.10;;;;;;;19.23;63.56;102108.78;5092969;28;20137;-84
2023/06/27 05:15:26;;;;;;;0.45;0.45;;;;;;;19.26;63.14;102110.47;5092229;28;20165;-83
2023/06/27 05:18:15;;;;;;;0.03;0.03;;;;;;;19.23;63.48;102103.41;5096755;28;20050;-84
2023/06/27 05:20:42;;;;;;;0.00;0.00;;;;;;;19.32;62.71;102113.81;5099251;28;20091;-85
2023/06/27 05:23:09;;;;;;;0.10;0.10;;;;;;;19.38;62.83;102113.56;5090056;28;20059;-85
2023/06/27 05:25:35;;;;;;;0.10;0.10;;;;;;;19.40;62.61;102111.72;5091508;28;20371;-85
2023/06/27 05:28:01;;;;;;;0.10;0.10;;;;;;;19.46;62.29;102109.72;5092541;28;20040;-85
2023/06/27 05:30:28;;;;;;;1.38;1.27;;;;;;;19.46;62.75;102110.59;5087143;28;20099;-85
2023/06/27 05:32:55;;;;;;;0.10;0.10;;;;;;;19.54;62.03;102110.34;5089313;28;20039;-85
2023/06/27 05:35:22;;;;;;;0.10;0.10;;;;;;;19.56;62.17;102106.66;5096631;28;20021;-85
2023/06/27 05:37:48;;;;;;;0.03;0.03;;;;;;;19.60;62.28;102118.16;5088094;28;20025;-86
2023/06/27 05:40:14;;;;;;;0.10;0.10;;;;;;;19.59;62.25;102129.84;5083035;28;20032;-86
2023/06/27 05:42:41;;;;;;;1.17;1.17;;;;;;;19.64;61.92;102119.78;5087057;28;20490;-85
2023/06/27 05:45:08;;;;;;;0.20;0.20;;;;;;;19.68;62.08;102117.88;5091602;28;20435;-86
2023/06/27 05:47:34;;;;;;;0.13;0.13;;;;;;;19.66;61.69;102112.53;5092803;28;20028;-85
2023/06/27 05:50:00;;;;;;;0.32;0.32;;;;;;;19.78;61.49;102115.72;5086579;28;20020;-86
2023/06/27 05:52:29;;;;;;;4.10;0.57;;;;;;;19.85;61.28;102111.84;5084136;28;20021;-86
2023/06/27 05:54:55;;;;;;;0.00;0.00;;;;;;;19.90;61.05;102115.28;5097393;28;20029;-86
2023/06/27 05:57:22;;;;;;;0.45;0.45;;;;;;;19.97;60.59;102111.38;5095726;28;20078;-85
2023/06/27 05:59:48;;;;;;;0.00;0.00;;;;;;;19.94;59.98;102118.69;5085692;28;20020;-87
2023/06/27 06:02:14;;;;;;;0.10;0.10;;;;;;;19.97;60.18;102116.75;5089470;28;20394;-86
2023/06/27 06:04:40;;;;;;;0.22;0.22;;;;;;;20.05;60.12;102116.47;5084514;28;20436;-87
2023/06/27 06:07:06;;;;;;;0.10;0.10;;;;;;;20.09;59.77;102111.81;5086360;28;20539;-85
2023/06/27 06:09:32;;;;;;;0.75;0.50;;;;;;;20.13;59.36;102121.53;5096359;28;20134;-86
2023/06/27 06:11:59;;;;;;;1.65;0.63;;;;;;;20.16;59.07;102116.03;5104465;28;20034;-86
2023/06/27 06:14:25;;;;;;;0.10;0.10;;;;;;;20.23;57.82;102122.91;5106097;28;20031;-87
2023/06/27 06:16:51;;;;;;;0.80;0.80;;;;;;;20.27;57.87;102121.84;5094259;28;20488;-86
2023/06/27 06:19:18;;;;;;;0.00;0.00;;;;;;;20.37;58.48;102130.44;5092797;28;20047;-86
2023/06/27 06:21:44;;;;;;;0.10;0.10;;;;;;;20.42;57.90;102128.41;5089838;28;20032;-86
2023/06/27 06:24:10;;;;;;;0.10;0.10;;;;;;;20.43;57.55;102134.69;5088403;28;20119;-85
2023/06/27 06:26:37;;;;;;;0.10;0.10;;;;;;;20.47;57.59;102130.94;5086690;28;20081;-86
2023/06/27 06:29:04;;;;;;;0.10;0.10;;;;;;;20.45;55.68;102128.31;5091696;28;20048;-85
2023/06/27 06:31:30;;;;;;;0.10;0.10;;;;;;;20.52;54.99;102134.31;5094428;28;20028;-86
2023/06/27 06:33:57;;;;;;;0.10;0.10;;;;;;;20.64;55.94;102136.50;5093385;28;20043;-84
2023/06/27 06:36:24;;;;;;;0.08;0.08;;;;;;;20.71;55.99;102141.63;5090602;28;20031;-85
2023/06/27 06:38:50;;;;;;;0.10;0.10;;;;;;;20.79;55.83;102142.22;5106743;28;20027;-85
2023/06/27 06:41:18;;;;;;;2.08;1.75;;;;;;;20.87;54.81;102140.06;5088287;28;20105;-85
2023/06/27 06:43:44;;;;;;;0.10;0.10;;;;;;;20.96;53.83;102139.66;5083256;28;20031;-84
2023/06/27 06:46:10;;;;;;;0.10;0.10;;;;;;;20.99;51.72;102138.66;5088697;28;20449;-84
2023/06/27 06:48:36;;;;;;;0.10;0.10;;;;;;;21.14;52.74;102129.88;5080754;28;20036;-84
2023/06/27 06:51:03;;;;;;;0.05;0.05;;;;;;;21.27;53.56;102146.41;5085967;28;20054;-82
2023/06/27 06:53:29;;;;;;;0.10;0.10;;;;;;;21.34;51.63;102145.16;5102051;28;20179;-84
2023/06/27 06:55:55;;;;;;;0.10;0.10;;;;;;;21.44;51.55;102142.06;5101227;28;20047;-84
2023/06/27 06:58:21;;;;;;;0.10;0.10;;;;;;;21.51;49.86;102146.25;5086024;28;20704;-87
2023/06/27 07:00:47;;;;;;;0.10;0.10;;;;;;;21.67;51.74;102146.47;5083156;28;20032;-85
2023/06/27 07:03:14;;;;;;;0.20;0.20;;;;;;;21.70;49.07;102137.34;5095100;28;20057;-87
2023/06/27 07:05:41;;;;;;;0.10;0.10;;;;;;;21.81;49.60;102140.41;5092678;28;20425;-85
2023/06/27 07:08:08;;;;;;;0.00;0.00;;;;;;;21.86;48.47;102141.06;5084065;28;20024;-86
2023/06/27 07:10:37;;;;;;;0.20;0.20;;;;;;;21.95;48.54;102140.63;5082136;28;20028;-85
2023/06/27 07:13:05;;;;;;;0.13;0.13;;;;;;;22.06;47.63;102142.81;5103407;28;20755;-86
2023/06/27 07:15:32;;;;;;;0.10;0.10;;;;;;;22.21;48.26;102141.19;5107835;28;20180;-86
2023/06/27 07:17:59;;;;;;;0.10;0.10;;;;;;;22.34;49.41;102146.88;5090417;28;20031;-86
2023/06/27 07:20:25;;;;;;;0.00;0.00;;;;;;;22.41;47.45;102147.50;5099565;28;20294;-84
2023/06/27 07:22:52;;;;;;;0.10;0.10;;;;;;;22.49;47.46;102150.66;5081245;28;20025;-84
2023/06/27 07:25:18;;;;;;;0.00;0.00;;;;;;;22.62;47.52;102142.84;5099513;28;20062;-85
2023/06/27 07:27:45;;;;;;;0.10;0.10;;;;;;;22.71;47.70;102139.66;5106790;28;20166;-85
2023/06/27 07:30:12;;;;;;;0.20;0.20;;;;;;;22.85;47.44;102146.19;5087809;28;20552;-84
2023/06/27 07:32:49;;;;;;;0.10;0.10;;;;;;;22.92;45.61;102144.94;5089055;28;20413;-86
2023/06/27 07:35:15;;;;;;;0.00;0.00;;;;;;;22.94;44.87;102141.19;5084598;28;20032;-86
2023/06/27 07:37:41;;;;;;;0.10;0.10;;;;;;;23.01;44.75;102147.16;5082009;28;20115;-84
2023/06/27 07:40:08;;;;;;;0.10;0.10;;;;;;;23.08;44.72;102147.72;5116660;28;20396;-84
2023/06/27 07:42:35;;;;;;;0.10;0.10;;;;;;;23.20;45.60;102143.50;5117014;28;20020;-84
2023/06/27 07:45:01;;;;;;;0.10;0.10;;;;;;;23.24;44.94;102142.38;5094873;28;20023;-79
2023/06/27 07:47:27;;;;;;;0.10;0.10;;;;;;;23.29;44.51;102144.84;5103789;28;20032;-85
2023/06/27 07:49:54;;;;;;;0.10;0.10;;;;;;;23.39;45.07;102136.16;5092620;28;20032;-85
2023/06/27 07:52:20;;;;;;;0.25;0.25;;;;;;;23.48;45.10;102140.22;5114659;28;20508;-84
2023/06/27 07:54:46;;;;;;;0.10;0.10;;;;;;;23.56;45.45;102127.16;5104299;28;20767;-84
2023/06/27 07:57:12;;;;;;;0.00;0.00;;;;;;;23.46;40.91;102136.69;5092638;28;20032;-85
2023/06/27 07:59:38;;;;;;;0.10;0.10;;;;;;;23.54;42.57;102137.16;5098107;28;20025;-86
2023/06/27 08:02:08;;;;;;;0.10;0.10;;;;;;;23.47;42.12;102143.00;5110086;28;20120;-85
2023/06/27 08:04:34;;;;;;;0.10;0.10;;;;;;;23.43;40.41;102143.16;5093502;28;20015;-85
2023/06/27 08:09:45;;;;;;;0.45;0.45;;;;;;;23.35;41.64;102141.81;5101863;22;20127;-81
2023/06/27 08:12:11;;;;;;;0.10;0.10;;;;;;;23.34;41.85;102146.38;5080460;28;20032;-80
2023/06/27 08:14:40;;;;;;;0.00;0.00;;;;;;;23.36;42.66;102140.88;5078383;28;20037;-81
2023/06/27 08:17:06;;;;;;;0.00;0.00;;;;;;;23.40;42.01;102137.03;5079291;28;20029;-81
2023/06/27 08:19:32;;;;;;;0.00;0.00;;;;;;;23.43;41.34;102145.00;5079485;28;20020;-81
2023/06/27 08:21:58;;;;;;;1.35;0.22;;;;;;;23.47;41.64;102141.16;5069435;28;20029;-81
2023/06/27 08:24:24;;;;;;;0.10;0.10;;;;;;;23.44;41.90;102144.06;5062448;28;20135;-81
2023/06/27 08:26:54;;;;;;;0.03;0.03;;;;;;;23.48;42.16;102139.31;5075876;28;20064;-81
2023/06/27 08:29:20;;;;;;;0.00;0.00;;;;;;;23.54;42.50;102145.28;5077562;28;20024;-81
2023/06/27 08:31:48;;;;;;;0.00;0.00;;;;;;;23.53;40.83;102140.81;5061079;28;20033;-82
2023/06/27 08:34:14;;;;;;;0.10;0.10;;;;;;;23.64;42.17;102142.06;5077121;28;20024;-81
2023/06/27 08:36:40;;;;;;;0.10;0.10;;;;;;;23.65;42.23;102141.13;5051168;28;20057;-83
2023/06/27 08:39:06;;;;;;;0.05;0.05;;;;;;;23.68;42.28;102146.38;5061633;28;20039;-80
2023/06/27 08:41:32;;;;;;;0.10;0.10;;;;;;;23.72;42.69;102147.94;5069959;28;20075;-81
2023/06/27 08:43:58;;;;;;;0.10;0.10;;;;;;;23.74;42.53;102144.19;5068008;28;20044;-80
2023/06/27 08:46:27;;;;;;;0.10;0.10;;;;;;;23.71;40.91;102146.19;5061389;28;20025;-80
2023/06/27 08:48:56;;;;;;;0.22;0.22;;;;;;;23.71;41.83;102147.09;5060382;28;20036;-80
2023/06/27 08:51:23;;;;;;;0.10;0.10;;;;;;;23.67;41.85;102139.22;5066513;28;20106;-81
2023/06/27 08:53:57;;;;;;;0.03;0.03;;;;;;;23.62;40.79;102135.88;5054325;28;20038;-81
2023/06/27 08:56:26;;;;;;;0.10;0.10;;;;;;;23.63;40.91;102146.63;5065074;28;20032;-80
2023/06/27 08:59:01;;;;;;;0.00;0.00;;;;;;;23.69;40.66;102143.56;5054676;28;20041;-81
2023/06/27 09:01:31;;;;;;;0.05;0.05;;;;;;;23.74;41.29;102136.06;5067275;28;20025;-80
2023/06/27 09:04:00;;;;;;;0.00;0.00;;;;;;;23.79;40.98;102143.94;5056830;28;20065;-81
2023/06/27 09:06:26;;;;;;;0.10;0.10;;;;;;;23.81;39.76;102149.25;5071955;28;20070;-80
2023/06/27 09:08:52;;;;;;;0.10;0.10;;;;;;;23.79;38.81;102146.66;5077751;28;20028;-80
2023/06/27 09:11:19;;;;;;;0.10;0.10;;;;;;;23.91;40.36;102142.38;5077124;28;20032;-82
2023/06/27 09:13:46;;;;;;;0.10;0.10;;;;;;;24.00;40.50;102135.59;5039063;28;20037;-81
2023/06/27 09:16:13;;;;;;;0.10;0.10;;;;;;;24.04;40.42;102143.47;5046039;28;20048;-81
2023/06/27 09:18:40;;;;;;;0.10;0.10;;;;;;;24.12;40.70;102145.72;5049782;28;20045;-86
2023/06/27 09:21:06;;;;;;;0.00;0.00;;;;;;;24.17;40.14;102157.16;5054959;28;20086;-81
2023/06/27 09:23:33;;;;;;;0.00;0.00;;;;;;;24.20;40.05;102148.88;5045870;28;20029;-86
2023/06/27 09:26:14;;;;;;;0.00;0.00;;;;;;;24.32;40.85;102147.28;5041430;28;20033;-82
2023/06/27 09:28:50;;;;;;;0.10;0.10;;;;;;;24.35;40.15;102151.66;5047936;28;20028;-82
2023/06/27 09:31:18;;;;;;;0.03;0.03;;;;;;;24.36;40.18;102143.47;5050300;28;20428;-80
2023/06/27 09:33:44;;;;;;;0.05;0.05;;;;;;;24.30;39.65;102146.53;5050811;28;20025;-81
2023/06/27 09:36:11;;;;;;;0.38;0.38;;;;;;;24.24;38.87;102149.59;5064549;28;20021;-81
2023/06/27 09:38:37;;;;;;;0.10;0.10;;;;;;;24.35;40.33;102138.13;5059143;28;20047;-81
2023/06/27 09:43:40;;;;;;;0.73;0.73;;;;;;;24.36;38.06;102137.16;5113226;27;1184847;-81
2023/06/27 09:46:07;;;;;;;0.10;0.10;;;;;;;24.50;38.73;102129.13;5130547;28;20127;-82
2023/06/27 09:48:35;;;;;;;0.00;0.00;;;;;;;24.58;39.26;102134.06;5115434;27;20121;-82
2023/06/27 09:51:03;;;;;;;0.10;0.10;;;;;;;24.54;37.42;102146.94;5111819;28;20055;-82
2023/06/27 09:53:30;;;;;;;0.10;0.10;;;;;;;24.67;37.45;102146.22;5114008;28;20503;-82
2023/06/27 09:55:58;;;;;;;0.00;0.00;;;;;;;24.66;36.56;102148.09;5113184;28;20035;-80
2023/06/27 09:58:29;;;;;;;0.10;0.10;;;;;;;24.87;37.93;102143.22;5120933;28;20024;-80
2023/06/27 10:01:04;;;;;;;0.10;0.10;;;;;;;24.88;37.94;102152.22;5130940;28;20044;-80
2023/06/27 10:03:34;;;;;;;0.65;0.65;;;;;;;25.01;38.73;102152.34;5109262;28;20035;-82
2023/06/27 10:06:01;;;;;;;0.10;0.10;;;;;;;25.11;37.60;102153.53;5105983;28;20031;-81
2023/06/27 10:08:28;;;;;;;0.10;0.10;;;;;;;25.12;37.43;102151.69;5109510;27;20114;-80
2023/06/27 10:10:57;;;;;;;2.40;1.20;;;;;;;25.28;37.74;102146.19;5101552;28;20959;-81
2023/06/27 10:13:24;;;;;;;0.10;0.10;;;;;;;25.12;35.18;102151.69;5109596;28;20410;-81
2023/06/27 10:15:50;;;;;;;0.10;0.10;;;;;;;25.16;35.72;102143.28;5112603;28;20434;-80
2023/06/27 10:18:16;;;;;;;0.10;0.10;;;;;;;25.14;35.44;102142.50;5108690;28;20028;-80
2023/06/27 10:20:43;;;;;;;0.22;0.22;;;;;;;25.33;36.48;102135.94;5109715;28;20039;-80
2023/06/27 10:23:09;;;;;;;0.10;0.10;;;;;;;25.35;36.02;102137.56;5108815;28;20032;-81
2023/06/27 10:25:37;;;;;;;0.35;0.35;;;;;;;25.33;34.30;102138.66;5111598;28;20099;-82
2023/06/27 10:28:06;;;;;;;0.50;0.50;;;;;;;25.41;35.30;102120.09;5113840;28;20028;-82
2023/06/27 10:30:37;;;;;;;0.10;0.10;;;;;;;25.61;36.21;102129.69;5109636;28;20071;-81
2023/06/27 10:33:22;;;;;;;0.00;0.00;;;;;;;25.70;35.13;102140.94;5114305;28;20047;-81
2023/06/27 10:35:50;;;;;;;0.10;0.10;;;;;;;25.51;34.30;102134.81;5110407;28;20115;-83
2023/06/27 10:38:18;;;;;;;0.08;0.08;;;;;;;25.48;34.68;102139.56;5109792;28;20035;-81
2023/06/27 10:43:51;;;;;;;0.10;0.10;;;;;;;25.71;33.99;102142.66;5077686;28;20441;-80
2023/06/27 10:46:20;;;;;;;0.45;0.45;;;;;;;25.83;34.45;102137.31;5090125;28;20020;-81
2023/06/27 10:48:53;;;;;;;0.10;0.10;;;;;;;25.83;33.31;102134.59;5077048;28;20729;-82
2023/06/27 10:51:21;;;;;;;0.10;0.10;;;;;;;25.78;33.49;102127.72;5076207;28;20020;-82
2023/06/27 10:56:46;;;;;;;0.45;0.45;;;;;;;25.69;33.65;102134.63;5090693;27;20059;-80
2023/06/27 10:59:16;;;;;;;0.10;0.10;;;;;;;25.75;34.22;102139.66;5074497;28;20047;-81
2023/06/27 11:01:49;;;;;;;0.10;0.10;;;;;;;25.71;34.26;102132.69;5074484;28;20024;-81
2023/06/27 11:04:18;;;;;;;0.10;0.10;;;;;;;25.87;34.48;102128.97;5076386;28;20037;-81
2023/06/27 11:06:45;;;;;;;0.10;0.10;;;;;;;25.82;33.66;102151.88;5076302;28;20534;-78
2023/06/27 11:09:16;;;;;;;0.10;0.10;;;;;;;25.70;33.54;102140.94;5076934;28;20045;-81
2023/06/27 11:12:02;;;;;;;0.10;0.10;;;;;;;25.81;33.87;102136.53;5076082;28;20028;-81
2023/06/27 11:14:34;;;;;;;1.35;0.47;;;;;;;25.75;32.56;102152.38;5076668;28;20033;-82
2023/06/27 11:17:03;;;;;;;0.00;0.00;;;;;;;25.60;30.54;102162.34;5076467;28;20021;-80
2023/06/27 11:19:30;;;;;;;1.35;1.27;;;;;;;25.50;31.35;102141.19;5072322;28;20042;-82
2023/06/27 11:21:57;;;;;;;0.00;0.00;;;;;;;25.66;32.66;102145.69;5075091;28;20051;-82
2023/06/27 11:24:24;;;;;;;0.82;0.82;;;;;;;25.62;32.58;102142.28;5075181;28;20032;-81
2023/06/27 11:26:51;;;;;;;0.10;0.10;;;;;;;25.76;32.79;102133.25;5070422;28;20385;-81
2023/06/27 11:29:17;;;;;;;0.45;0.45;;;;;;;25.95;32.62;102135.63;5074885;28;20024;-82
2023/06/27 11:31:43;;;;;;;0.03;0.03;;;;;;;26.06;32.21;102131.41;5074902;28;20098;-81
2023/06/27 11:34:09;;;;;;;0.20;0.20;;;;;;;26.16;32.67;102132.53;5075630;28;20036;-81
2023/06/27 11:36:38;;;;;;;0.10;0.10;;;;;;;25.99;31.76;102133.59;5077198;28;20411;-79
2023/06/27 11:39:05;;;;;;;0.10;0.10;;;;;;;26.11;32.09;102132.84;5068829;28;20048;-81
2023/06/27 11:41:31;;;;;;;0.10;0.10;;;;;;;26.15;31.90;102134.38;5072539;28;20061;-81